Knaresborough, United Kingdom
Current Conditions -  °F | °C
As of 8:50 PM on Wednesday 26 Nov 2014 (Local Time) from EGXD Reporting Station
Haze Haze  
Wind Chill: 39°   Ceiling: 3000
Heat Index: 43°   Visibility: 3mi
Dew Point: 43°   Wind: 6mph
Humidity: 100%   Direction: 330°NNW
Pressure: 29.8"   Gusts: NA
Location:  54.01°N, 1.47°W
Report Text: EGXD 262050Z 33005KT 5000 BR FEW016 BKN030 06/06 Q1009 WHT TEMPO 3000 BKN014 YLO1
Loading
Personal Weather Stations






























Interactive Weather Map New forecast layout! Learn more

10-Day Weather Forecast

Advertisements
Track Severe Weather on mobile